Terminal Aerodrome Forecast
Issued by NWS Wilmington, NC

Current Version | Previous Version | Text Only | Print | Product List | Glossary On
Versions: 1 2 3 4 5 6 7 8 9 10 11 12 13 14 15 16
574
FTUS42 KILM 220614 AAA
TAFLBT
TAF AMD
KLBT 220614Z 2206/2306 00000KT 3SM BR FEW100
      TEMPO 2208/2212 2SM BR BKN090 BKN200
     FM221600 06007KT P6SM SCT060=

USA.gov is the U.S. government's official web portal to all federal, state and local government web resources and services.